Skip Navigation Links
NOAA logo - Click to go to the NOAA homepage
NOAA's National Weather Service
Alaska Aviation Weather Unit
  NWS logo - Click to go to the NWS homepage
Left Navbar Graphic     02 AKDT = 10 GMT

   
NOAA is celebrating 200 years of science, service, and stewardship. Visit the NOAA 200th celebration Web site to learn more.
USA.gov is the U.S. Government's official Web portal to all Federal, state and local government Web resources and services.
Facebook
NWS on Facebook

AAWU Home :: Display TAF Add Bookmark
TAF PAEI 270400Z 2704/2810 VRB03KT 9999 SKC QNH2970INS
      BECMG 2721/2722 VRB03KT 9999 SCT100 SCT150 QNH2970INS
      TXM05/2802Z TNM30/2716Z=
METAR PAEI 270458Z AUTO 34004KT 10SM CLR M09/M18 A2976=

METAR PAEI 270558Z VRB06KT 10SM CLR M11/M19 A2976=

METAR PAEI 270658Z AUTO 35006KT 10SM CLR M15/M21 A2975=

METAR PAEI 270758Z AUTO 00000KT 10SM CLR M16/M21 A2975=

METAR PAEI 270858Z AUTO 00000KT 10SM CLR M20/M23 A2975=

METAR PAEI 270958Z AUTO 00000KT 10SM CLR M20/M23 A2974=


NOAA's National Weather Service
Alaska Aviation Weather Unit
6930 Sand Lake Road
Anchorage, AK 99502-1845
Disclaimer
Credits
Glossary
Privacy Policy
About Us
Career Opportunities
Contact AAWU Internet Services Site last modified: April, 17th 2012